createdAt,value
2022-12-08T00:01:15.694Z,100338.56
2022-12-08T00:03:43.176Z,100339.44
2022-12-08T00:06:35.506Z,100325.59
2022-12-08T00:09:21.104Z,100336.06
2022-12-08T00:11:49.302Z,100334.66
2022-12-08T00:14:16.377Z,100327.00
2022-12-08T00:16:43.049Z,100331.28
2022-12-08T00:19:09.780Z,100333.91
2022-12-08T00:21:36.495Z,100330.06
2022-12-08T00:24:03.382Z,100333.69
2022-12-08T00:26:31.134Z,100331.06
2022-12-08T00:28:58.349Z,100336.09
2022-12-08T00:31:26.564Z,100334.53
2022-12-08T00:33:54.727Z,100338.94
2022-12-08T00:36:21.821Z,100337.47
2022-12-08T00:38:54.393Z,100339.00
2022-12-08T00:41:41.892Z,100333.44
2022-12-08T00:44:09.189Z,100333.62
2022-12-08T00:46:42.132Z,100329.41
2022-12-08T00:49:09.215Z,100336.75
2022-12-08T00:51:36.073Z,100343.06
2022-12-08T00:54:04.028Z,100338.63
2022-12-08T00:56:31.678Z,100342.19
2022-12-08T00:58:59.032Z,100339.53
2022-12-08T01:01:30.723Z,100345.81
2022-12-08T01:03:58.128Z,100333.62
2022-12-08T01:06:25.026Z,100333.72
2022-12-08T01:08:51.884Z,100338.75
2022-12-08T01:11:19.726Z,100337.22
2022-12-08T01:13:46.672Z,100342.44
2022-12-08T01:16:24.041Z,100337.28
2022-12-08T01:18:50.894Z,100326.81
2022-12-08T01:21:17.949Z,100334.72
2022-12-08T01:23:44.794Z,100328.75
2022-12-08T01:26:12.370Z,100325.19
2022-12-08T01:28:39.317Z,100320.81
2022-12-08T01:31:10.787Z,100324.31
2022-12-08T01:33:37.614Z,100325.97
2022-12-08T01:36:05.645Z,100317.25
2022-12-08T01:38:32.921Z,100320.56
2022-12-08T01:40:59.705Z,100314.59
2022-12-08T01:43:29.455Z,100313.78
2022-12-08T01:45:56.257Z,100303.19
2022-12-08T01:48:27.384Z,100303.53
2022-12-08T01:50:54.623Z,100299.16
2022-12-08T01:53:26.991Z,100294.00
2022-12-08T01:55:56.866Z,100285.63
2022-12-08T01:58:27.517Z,100289.59
2022-12-08T02:00:54.278Z,100283.25
2022-12-08T02:03:42.967Z,100284.91
2022-12-08T02:06:10.033Z,100282.19
2022-12-08T02:08:39.361Z,100279.78
2022-12-08T02:11:09.138Z,100279.00
2022-12-08T02:13:36.178Z,100269.41
2022-12-08T02:16:09.921Z,100275.19
2022-12-08T02:19:29.274Z,100268.59
2022-12-08T02:21:55.246Z,100266.97
2022-12-08T02:24:34.687Z,100271.03
2022-12-08T02:27:22.054Z,100268.66
2022-12-08T02:30:05.733Z,100259.94
2022-12-08T02:33:01.698Z,100264.44
2022-12-08T02:35:48.676Z,100248.69
2022-12-08T02:38:44.755Z,100247.81
2022-12-08T02:41:57.142Z,100247.91
2022-12-08T02:44:48.475Z,100254.44
2022-12-08T02:47:20.797Z,100240.94
2022-12-08T02:49:47.760Z,100252.19
2022-12-08T02:52:14.408Z,100241.69
2022-12-08T02:54:44.463Z,100247.16
2022-12-08T02:57:30.072Z,100243.63
2022-12-08T03:00:03.410Z,100235.84
2022-12-08T03:02:36.809Z,100235.94
2022-12-08T03:05:08.121Z,100230.81
2022-12-08T03:07:49.527Z,100232.19
2022-12-08T03:10:29.669Z,100237.37
2022-12-08T03:13:01.252Z,100231.25
2022-12-08T03:15:33.031Z,100230.47
2022-12-08T03:18:01.296Z,100234.81
2022-12-08T03:20:46.513Z,100235.62
2022-12-08T03:23:14.841Z,100230.50
2022-12-08T03:25:44.063Z,100234.06
2022-12-08T03:28:12.947Z,100225.31
2022-12-08T03:30:44.599Z,100227.94
2022-12-08T03:33:24.597Z,100223.22
2022-12-08T03:35:52.065Z,100221.78
2022-12-08T03:38:18.869Z,100213.09
2022-12-08T03:41:06.286Z,100207.16
2022-12-08T03:43:32.920Z,100208.00
2022-12-08T03:45:59.765Z,100213.69
2022-12-08T03:48:26.711Z,100208.75
2022-12-08T03:50:53.731Z,100208.66
2022-12-08T03:53:20.576Z,100198.47
2022-12-08T03:55:47.768Z,100194.97
2022-12-08T03:58:14.786Z,100203.75
2022-12-08T04:00:41.577Z,100192.63
2022-12-08T04:03:08.483Z,100200.28
2022-12-08T04:05:35.274Z,100202.97
2022-12-08T04:08:02.073Z,100196.97
2022-12-08T04:10:29.228Z,100197.75
2022-12-08T04:12:56.796Z,100198.41
2022-12-08T04:15:23.724Z,100194.16
2022-12-08T04:17:50.472Z,100186.34
2022-12-08T04:20:17.332Z,100193.37
2022-12-08T04:22:44.071Z,100184.69
2022-12-08T04:25:10.943Z,100181.34
2022-12-08T04:27:37.855Z,100184.03
2022-12-08T04:30:05.081Z,100175.34
2022-12-08T04:32:32.043Z,100182.13
2022-12-08T04:34:58.981Z,100186.03
2022-12-08T04:37:28.753Z,100187.34
2022-12-08T04:39:55.578Z,100183.06
2022-12-08T04:42:42.184Z,100191.81
2022-12-08T04:45:10.166Z,100191.75
2022-12-08T04:47:37.073Z,100197.84
2022-12-08T04:50:04.755Z,100188.19
2022-12-08T04:52:31.934Z,100191.88
2022-12-08T04:54:58.578Z,100190.03
2022-12-08T04:57:25.682Z,100188.09
2022-12-08T04:59:56.850Z,100186.50
2022-12-08T05:02:23.972Z,100187.31
2022-12-08T05:04:50.800Z,100184.94
2022-12-08T05:07:17.435Z,100184.81
2022-12-08T05:09:45.120Z,100186.66
2022-12-08T05:12:11.932Z,100179.63
2022-12-08T05:14:38.842Z,100173.59
2022-12-08T05:17:09.525Z,100171.69
2022-12-08T05:19:36.802Z,100155.31
2022-12-08T05:22:03.518Z,100172.50
2022-12-08T05:24:30.625Z,100165.50
2022-12-08T05:26:57.360Z,100171.38
2022-12-08T05:29:24.279Z,100174.97
2022-12-08T05:31:51.190Z,100172.44
2022-12-08T05:34:18.155Z,100166.16
2022-12-08T05:36:45.027Z,100168.22
2022-12-08T05:39:13.072Z,100149.97
2022-12-08T05:41:39.818Z,100150.09
2022-12-08T05:44:06.562Z,100144.78
2022-12-08T05:46:33.723Z,100146.47
2022-12-08T05:49:01.271Z,100149.91
2022-12-08T05:51:28.485Z,100144.81
2022-12-08T05:53:55.372Z,100144.88
2022-12-08T05:56:23.039Z,100149.22
2022-12-08T05:58:50.486Z,100154.19
2022-12-08T06:01:28.829Z,100156.84
2022-12-08T06:03:56.215Z,100148.31
2022-12-08T06:06:23.141Z,100145.91
2022-12-08T06:08:49.936Z,100142.13
2022-12-08T06:11:24.161Z,100136.72
2022-12-08T06:13:51.290Z,100126.47
2022-12-08T06:16:18.441Z,100125.06
2022-12-08T06:18:45.527Z,100126.94
2022-12-08T06:21:16.949Z,100129.66
2022-12-08T06:23:43.808Z,100125.03
2022-12-08T06:26:12.355Z,100131.31
2022-12-08T06:28:39.429Z,100135.59
2022-12-08T06:31:11.373Z,100131.38
2022-12-08T06:33:38.326Z,100132.03
2022-12-08T06:36:05.977Z,100131.41
2022-12-08T06:38:32.972Z,100133.13
2022-12-08T06:41:00.150Z,100129.72
2022-12-08T06:43:27.095Z,100133.59
2022-12-08T06:45:54.127Z,100133.38
2022-12-08T06:48:20.862Z,100137.62
2022-12-08T06:50:48.880Z,100146.28
2022-12-08T06:53:16.294Z,100157.91
2022-12-08T06:56:02.070Z,100152.78
2022-12-08T06:58:28.769Z,100157.03
2022-12-08T07:00:57.704Z,100151.91
2022-12-08T07:03:24.602Z,100135.72
2022-12-08T07:06:00.255Z,100137.56
2022-12-08T07:08:30.715Z,100141.78
2022-12-08T07:10:57.831Z,100139.25
2022-12-08T07:13:24.936Z,100138.44
2022-12-08T07:15:52.194Z,100148.69
2022-12-08T07:18:19.363Z,100150.44
2022-12-08T07:20:46.416Z,100145.41
2022-12-08T07:23:17.770Z,100148.75
2022-12-08T07:25:45.325Z,100152.28
2022-12-08T07:28:12.231Z,100160.16
2022-12-08T07:30:39.970Z,100164.59
2022-12-08T07:33:06.921Z,100167.28
2022-12-08T07:35:35.234Z,100160.59
2022-12-08T07:38:05.160Z,100145.56
2022-12-08T07:40:32.084Z,100139.47
2022-12-08T07:42:59.495Z,100146.28
2022-12-08T07:45:31.500Z,100133.66
2022-12-08T07:47:59.566Z,100120.69
2022-12-08T07:50:28.297Z,100133.59
2022-12-08T07:52:55.093Z,100127.06
2022-12-08T07:55:24.814Z,100131.87
2022-12-08T07:57:51.966Z,100132.34
2022-12-08T08:00:19.732Z,100128.78
2022-12-08T08:02:46.534Z,100121.19
2022-12-08T08:05:13.295Z,100134.03
2022-12-08T08:07:42.428Z,100126.38
2022-12-08T08:10:14.973Z,100137.38
2022-12-08T08:12:44.210Z,100125.19
2022-12-08T08:15:11.123Z,100129.44
2022-12-08T08:17:38.176Z,100128.34
2022-12-08T08:20:09.309Z,100124.91
2022-12-08T08:22:36.876Z,100117.03
2022-12-08T08:25:07.962Z,100120.38
2022-12-08T08:27:34.841Z,100121.34
2022-12-08T08:30:02.611Z,100117.31
2022-12-08T08:32:35.349Z,100124.25
2022-12-08T08:35:05.899Z,100114.53
2022-12-08T08:37:32.569Z,100117.88
2022-12-08T08:40:03.708Z,100120.56
2022-12-08T08:42:31.419Z,100126.81
2022-12-08T08:44:58.514Z,100119.13
2022-12-08T08:47:26.007Z,100108.75
2022-12-08T08:49:58.649Z,100113.12
2022-12-08T08:52:28.295Z,100104.50
2022-12-08T08:54:58.103Z,100108.69
2022-12-08T08:57:26.065Z,100114.25
2022-12-08T08:59:56.261Z,100101.06
2022-12-08T09:02:23.236Z,100095.78
2022-12-08T09:04:50.173Z,100096.00
2022-12-08T09:09:58.410Z,100098.53
2022-12-08T09:12:28.306Z,100102.94
2022-12-08T09:14:55.087Z,100100.19
2022-12-08T09:17:21.953Z,100096.88
2022-12-08T09:19:48.977Z,100094.13
2022-12-08T09:22:16.699Z,100090.78
2022-12-08T09:24:44.570Z,100081.97
2022-12-08T09:27:11.614Z,100084.63
2022-12-08T09:29:40.531Z,100071.69
2022-12-08T09:32:07.539Z,100068.09
2022-12-08T09:34:36.115Z,100065.66
2022-12-08T09:37:03.289Z,100066.41
2022-12-08T09:39:30.185Z,100069.03
2022-12-08T09:42:33.538Z,100066.97
2022-12-08T09:45:06.701Z,100062.97
2022-12-08T09:47:37.051Z,100063.53
2022-12-08T09:50:05.271Z,100053.97
2022-12-08T09:52:35.597Z,100046.12
2022-12-08T09:55:05.106Z,100047.97
2022-12-08T09:57:33.401Z,100036.69
2022-12-08T10:00:03.238Z,100047.84
2022-12-08T10:02:31.276Z,100038.31
2022-12-08T10:04:59.281Z,100044.31
2022-12-08T10:07:45.339Z,100041.91
2022-12-08T10:10:30.940Z,100033.97
2022-12-08T10:13:01.345Z,100031.28
2022-12-08T10:15:36.852Z,100025.25
2022-12-08T10:18:18.592Z,100033.03
2022-12-08T10:20:52.796Z,100032.72
2022-12-08T10:23:23.466Z,100023.09
2022-12-08T10:26:15.488Z,100027.06
2022-12-08T10:29:05.319Z,100021.03
2022-12-08T10:31:32.639Z,100020.94
2022-12-08T10:34:21.085Z,100014.81
2022-12-08T10:37:09.923Z,100001.94
2022-12-08T10:39:47.282Z,100015.94
2022-12-08T10:42:23.097Z,100004.66
2022-12-08T10:45:10.018Z,100007.28
2022-12-08T10:47:44.619Z,100006.34
2022-12-08T10:50:19.169Z,99996.88
2022-12-08T10:52:46.584Z,99992.44
2022-12-08T10:55:41.224Z,100000.19
2022-12-08T10:58:23.946Z,99992.38
2022-12-08T11:01:17.432Z,99998.53
2022-12-08T11:03:55.696Z,99986.22
2022-12-08T11:06:44.846Z,99979.97
2022-12-08T11:09:16.885Z,99977.41
2022-12-08T11:11:56.224Z,99980.97
2022-12-08T11:14:25.817Z,99978.19
2022-12-08T11:17:04.907Z,99970.50
2022-12-08T11:19:37.297Z,99976.78
2022-12-08T11:22:20.863Z,99974.88
2022-12-08T11:24:56.563Z,99971.50
2022-12-08T11:27:23.568Z,99987.19
2022-12-08T11:29:50.250Z,99964.66
2022-12-08T11:32:17.404Z,99965.34
2022-12-08T11:34:49.630Z,99954.81
2022-12-08T11:37:19.975Z,99952.22
2022-12-08T11:39:53.582Z,99964.25
2022-12-08T11:42:24.647Z,99952.38
2022-12-08T11:45:14.249Z,99947.81
2022-12-08T11:47:45.481Z,99947.75
2022-12-08T11:50:28.857Z,99943.34
2022-12-08T11:52:57.141Z,99940.84
2022-12-08T11:55:49.868Z,99933.06
2022-12-08T11:58:44.528Z,99927.91
2022-12-08T12:01:28.244Z,99926.13
2022-12-08T12:04:13.185Z,99924.13
2022-12-08T12:06:54.268Z,99915.50
2022-12-08T12:09:27.570Z,99918.94
2022-12-08T12:12:19.728Z,99924.00
2022-12-08T12:15:13.253Z,99911.81
2022-12-08T12:17:44.460Z,99911.84
2022-12-08T12:20:24.704Z,99912.50
2022-12-08T12:22:59.455Z,99903.13
2022-12-08T12:25:27.610Z,99910.97
2022-12-08T12:28:03.181Z,99906.00
2022-12-08T12:30:58.358Z,99903.44
2022-12-08T12:33:29.120Z,99903.31
2022-12-08T12:35:56.970Z,99905.03
2022-12-08T12:38:45.432Z,99897.38
2022-12-08T12:41:51.089Z,99894.78
2022-12-08T12:44:20.622Z,99888.63
2022-12-08T12:46:48.649Z,99892.84
2022-12-08T12:49:36.447Z,99893.03
2022-12-08T12:52:04.664Z,99893.87
2022-12-08T12:54:32.471Z,99891.22
2022-12-08T12:57:06.362Z,99886.44
2022-12-08T12:59:43.014Z,99892.97
2022-12-08T13:02:33.463Z,99880.59
2022-12-08T13:05:18.320Z,99889.50
2022-12-08T13:07:58.821Z,99886.09
2022-12-08T13:10:29.837Z,99879.19
2022-12-08T13:13:20.523Z,99872.28
2022-12-08T13:15:53.398Z,99873.19
2022-12-08T13:18:47.249Z,99864.53
2022-12-08T13:21:21.348Z,99866.19
2022-12-08T13:23:51.756Z,99857.34
2022-12-08T13:26:25.709Z,99854.91
2022-12-08T13:29:01.838Z,99859.25
2022-12-08T13:31:50.094Z,99853.97
2022-12-08T13:34:32.799Z,99865.28
2022-12-08T13:37:12.106Z,99856.66
2022-12-08T13:39:51.924Z,99863.34
2022-12-08T13:42:25.167Z,99864.34
2022-12-08T13:45:21.780Z,99859.19
2022-12-08T13:57:03.984Z,99862.66
2022-12-08T13:59:18.817Z,99865.34
2022-12-08T14:01:47.633Z,99862.75
2022-12-08T14:07:07.540Z,99868.53
2022-12-08T14:09:54.566Z,99862.28
2022-12-08T14:12:31.511Z,99860.59
2022-12-08T14:15:07.837Z,99852.81
2022-12-08T14:17:39.806Z,99856.50
2022-12-08T14:20:13.056Z,99847.56
2022-12-08T14:22:43.070Z,99849.28
2022-12-08T14:25:13.856Z,99849.13
2022-12-08T14:27:40.572Z,99848.03
2022-12-08T14:30:16.622Z,99850.41
2022-12-08T14:32:52.825Z,99849.31
2022-12-08T14:35:20.108Z,99844.00
2022-12-08T14:37:53.396Z,99846.06
2022-12-08T14:40:48.602Z,99846.78
2022-12-08T14:43:16.795Z,99850.41
2022-12-08T14:45:45.633Z,99846.81
2022-12-08T14:48:31.146Z,99849.41
2022-12-08T14:51:00.121Z,99841.63
2022-12-08T14:53:29.769Z,99839.81
2022-12-08T14:55:56.814Z,99843.06
2022-12-08T14:58:29.627Z,99843.31
2022-12-08T15:00:58.607Z,99835.47
2022-12-08T15:03:30.519Z,99843.22
2022-12-08T15:05:58.707Z,99837.88
2022-12-08T15:08:25.789Z,99845.88
2022-12-08T15:11:15.016Z,99842.38
2022-12-08T15:13:46.515Z,99846.75
2022-12-08T15:16:29.727Z,99851.00
2022-12-08T15:19:02.726Z,99851.28
2022-12-08T15:21:31.623Z,99853.75
2022-12-08T15:23:58.596Z,99854.28
2022-12-08T15:26:27.280Z,99849.34
2022-12-08T15:28:55.204Z,99851.69
2022-12-08T15:31:22.349Z,99853.91
2022-12-08T15:33:51.215Z,99859.72
2022-12-08T15:36:17.956Z,99859.94
2022-12-08T15:38:45.044Z,99856.50
2022-12-08T15:41:15.114Z,99853.91
2022-12-08T15:43:42.620Z,99853.78
2022-12-08T15:46:09.519Z,99848.69
2022-12-08T15:48:39.473Z,99854.75
2022-12-08T15:51:06.200Z,99847.00
2022-12-08T15:53:33.055Z,99856.59
2022-12-08T15:56:26.923Z,99858.38
2022-12-08T15:58:54.765Z,99866.16
2022-12-08T16:01:22.371Z,99868.72
2022-12-08T16:09:40.249Z,99868.72
2022-12-08T16:12:57.185Z,99868.78
2022-12-08T16:15:50.088Z,99870.50
2022-12-08T16:18:08.070Z,99873.06
2022-12-08T16:23:45.226Z,99864.41
2022-12-08T16:27:21.784Z,99864.41
2022-12-08T16:29:18.909Z,99863.53
2022-12-08T16:31:46.420Z,99867.06
2022-12-08T16:34:13.512Z,99866.16
2022-12-08T16:36:43.058Z,99863.53
2022-12-08T16:39:13.223Z,99858.34
2022-12-08T16:41:58.524Z,99862.44
2022-12-08T16:44:25.487Z,99858.28
2022-12-08T16:46:52.206Z,99866.94
2022-12-08T16:49:18.911Z,99862.66
2022-12-08T16:51:48.132Z,99866.16
2022-12-08T16:54:14.931Z,99865.13
2022-12-08T16:56:46.817Z,99873.84
2022-12-08T16:59:13.455Z,99872.19
2022-12-08T17:01:40.819Z,99875.59
2022-12-08T17:04:30.576Z,99878.16
2022-12-08T17:06:55.080Z,99869.53
2022-12-08T17:09:21.844Z,99874.59
2022-12-08T17:11:48.662Z,99871.31
2022-12-08T17:14:15.434Z,99868.78
2022-12-08T17:16:42.841Z,99873.94
2022-12-08T17:19:09.827Z,99871.28
2022-12-08T17:21:36.671Z,99871.37
2022-12-08T17:24:03.521Z,99874.88
2022-12-08T17:26:30.344Z,99880.19
2022-12-08T17:29:01.391Z,99871.47
2022-12-08T17:31:30.220Z,99873.16
2022-12-08T17:34:04.618Z,99868.81
2022-12-08T17:36:31.370Z,99867.97
2022-12-08T17:39:01.543Z,99864.44
2022-12-08T17:41:29.219Z,99859.28
2022-12-08T17:43:56.120Z,99861.84
2022-12-08T17:46:23.332Z,99860.16
2022-12-08T17:48:50.422Z,99865.16
2022-12-08T17:51:22.154Z,99869.56
2022-12-08T17:53:48.898Z,99868.81
2022-12-08T17:56:20.381Z,99859.22
2022-12-08T17:58:51.331Z,99863.56
2022-12-08T18:01:22.599Z,99866.16
2022-12-08T18:03:49.850Z,99863.59
2022-12-08T18:06:17.881Z,99868.72
2022-12-08T18:08:44.774Z,99867.06
2022-12-08T18:11:15.446Z,99856.63
2022-12-08T18:13:42.342Z,99858.38
2022-12-08T18:16:11.827Z,99847.91
2022-12-08T18:18:38.910Z,99853.19
2022-12-08T18:21:08.327Z,99853.19
2022-12-08T18:23:37.302Z,99852.31
2022-12-08T18:26:05.182Z,99857.56
2022-12-08T18:28:34.386Z,99854.06
2022-12-08T18:31:01.529Z,99860.19
2022-12-08T18:33:28.281Z,99847.94
2022-12-08T18:35:55.048Z,99855.78
2022-12-08T18:38:21.945Z,99864.44
2022-12-08T18:40:49.224Z,99866.19
2022-12-08T18:43:15.958Z,99872.31
2022-12-08T18:45:43.581Z,99871.44
2022-12-08T18:48:10.439Z,99865.28
2022-12-08T18:50:37.092Z,99858.44
2022-12-08T18:53:03.942Z,99861.91
2022-12-08T18:55:30.654Z,99863.66
2022-12-08T18:57:57.268Z,99861.03
2022-12-08T19:00:24.808Z,99864.53
2022-12-08T19:02:51.636Z,99863.63
2022-12-08T19:05:18.836Z,99862.78
2022-12-08T19:07:45.944Z,99864.50
2022-12-08T19:10:13.281Z,99869.66
2022-12-08T19:12:40.040Z,99867.94
2022-12-08T19:15:07.061Z,99868.81
2022-12-08T19:17:34.028Z,99864.47
2022-12-08T19:20:00.877Z,99855.75
2022-12-08T19:22:27.803Z,99852.31
2022-12-08T19:24:54.426Z,99850.53
2022-12-08T19:27:21.466Z,99848.81
2022-12-08T19:29:48.132Z,99860.97
2022-12-08T19:32:15.062Z,99854.63
2022-12-08T19:34:42.245Z,99860.00
2022-12-08T19:37:13.000Z,99855.50
2022-12-08T19:39:58.613Z,99858.22
2022-12-08T19:42:44.099Z,99860.62
2022-12-08T19:45:14.282Z,99855.50
2022-12-08T19:47:41.631Z,99855.78
2022-12-08T19:50:28.633Z,99844.41
2022-12-08T19:52:56.245Z,99842.69
2022-12-08T19:55:24.030Z,99848.53
2022-12-08T19:57:51.069Z,99846.97
2022-12-08T20:00:19.334Z,99849.63
2022-12-08T20:02:46.448Z,99846.16
2022-12-08T20:05:13.788Z,99856.50
2022-12-08T20:07:40.887Z,99855.63
2022-12-08T20:10:10.598Z,99853.97
2022-12-08T20:12:37.343Z,99854.84
2022-12-08T20:15:04.130Z,99847.84
2022-12-08T20:17:31.157Z,99854.84
2022-12-08T20:20:00.500Z,99847.91
2022-12-08T20:22:29.343Z,99856.66
2022-12-08T20:25:00.686Z,99855.75
2022-12-08T20:27:29.342Z,99863.63
2022-12-08T20:29:56.051Z,99871.44
2022-12-08T20:32:23.103Z,99868.81
2022-12-08T20:34:49.991Z,99866.25
2022-12-08T20:37:16.675Z,99874.94
2022-12-08T20:39:43.534Z,99866.25
2022-12-08T20:42:13.060Z,99864.50
2022-12-08T20:44:44.587Z,99859.31
2022-12-08T20:47:12.561Z,99870.59
2022-12-08T20:49:40.010Z,99872.34
2022-12-08T20:52:07.985Z,99870.50
2022-12-08T20:54:35.718Z,99867.12
2022-12-08T20:57:02.697Z,99873.22
2022-12-08T20:59:34.217Z,99870.50
2022-12-08T21:02:01.381Z,99862.75
2022-12-08T21:04:28.292Z,99854.91
2022-12-08T21:06:55.711Z,99855.75
2022-12-08T21:09:23.108Z,99859.25
2022-12-08T21:11:49.912Z,99854.94
2022-12-08T21:14:17.063Z,99854.06
2022-12-08T21:16:44.121Z,99857.53
2022-12-08T21:19:13.106Z,99865.34
2022-12-08T21:21:39.936Z,99852.28
2022-12-08T21:24:07.202Z,99847.09
2022-12-08T21:26:34.514Z,99857.44
2022-12-08T21:29:01.230Z,99858.41
2022-12-08T21:31:29.816Z,99854.91
2022-12-08T21:33:56.789Z,99857.56
2022-12-08T21:36:24.804Z,99853.97
2022-12-08T21:38:51.923Z,99868.84
2022-12-08T21:41:38.445Z,99861.78
2022-12-08T21:44:06.019Z,99850.50
2022-12-08T21:46:33.126Z,99858.38
2022-12-08T21:49:00.258Z,99855.47
2022-12-08T21:51:27.155Z,99852.22
2022-12-08T21:53:54.480Z,99858.38
2022-12-08T21:56:21.373Z,99855.75
2022-12-08T21:58:48.255Z,99852.22
2022-12-08T22:01:15.323Z,99848.81
2022-12-08T22:03:42.435Z,99851.44
2022-12-08T22:06:10.585Z,99854.88
2022-12-08T22:08:37.818Z,99856.63
2022-12-08T22:11:05.304Z,99863.63
2022-12-08T22:13:34.658Z,99857.47
2022-12-08T22:16:03.304Z,99853.94
2022-12-08T22:18:30.356Z,99857.38
2022-12-08T22:20:57.268Z,99845.22
2022-12-08T22:23:24.349Z,99838.25
2022-12-08T22:26:00.986Z,99839.06
2022-12-08T22:28:28.356Z,99833.78
2022-12-08T22:30:55.006Z,99839.09
2022-12-08T22:33:24.094Z,99842.50
2022-12-08T22:36:08.142Z,99840.94
2022-12-08T22:38:37.350Z,99839.22
2022-12-08T22:41:04.882Z,99843.63
2022-12-08T22:43:31.942Z,99848.84
2022-12-08T22:45:58.874Z,99838.31
2022-12-08T22:48:25.719Z,99837.53
2022-12-08T22:50:57.898Z,99832.25
2022-12-08T22:53:24.968Z,99828.75
2022-12-08T22:55:51.826Z,99841.00
2022-12-08T22:58:19.039Z,99823.56
2022-12-08T23:00:46.394Z,99830.47
2022-12-08T23:03:13.692Z,99830.47
2022-12-08T23:05:41.039Z,99835.66
2022-12-08T23:08:08.825Z,99836.53
2022-12-08T23:10:36.309Z,99836.47
2022-12-08T23:13:04.220Z,99816.31
2022-12-08T23:15:31.579Z,99815.63
2022-12-08T23:17:58.676Z,99811.25
2022-12-08T23:20:25.739Z,99814.78
2022-12-08T23:22:52.548Z,99816.59
2022-12-08T23:25:19.985Z,99817.34
2022-12-08T23:27:47.116Z,99808.63
2022-12-08T23:30:14.469Z,99794.53
2022-12-08T23:32:41.728Z,99801.59
2022-12-08T23:35:09.493Z,99789.31
2022-12-08T23:37:36.285Z,99784.91
2022-12-08T23:40:04.094Z,99792.03
2022-12-08T23:42:31.021Z,99797.38
2022-12-08T23:44:57.926Z,99792.81
2022-12-08T23:47:24.859Z,99792.88
2022-12-08T23:49:52.142Z,99795.59
2022-12-08T23:52:18.782Z,99788.63
2022-12-08T23:54:45.501Z,99782.47
2022-12-08T23:57:12.370Z,99795.34
2022-12-08T23:59:39.135Z,99798.06
